Wall Lake, Iowa
Current Conditions -  °F | °C
As of 7:15 AM on Thursday 23 Oct 2014 (Local Time) from KCIN Reporting Station
Haze Haze  
Wind Chill: 57°   Ceiling: 400
Heat Index: 57°   Visibility: 4mi
Dew Point: 57°   Wind: 5mph
Humidity: 100%   Direction: 240°WSW
Pressure: 30.02"   Gusts: NA
Location:  42.27°N, 95.09°W
Report Text: KCIN 231215Z AUTO 24004KT 4SM BR OVC004 14/14 A3002 RMK AO2
Loading
Personal Weather Stations






























Interactive Weather Map
Tropical Storm Tracking
New forecast layout! Learn more

10-Day Weather Forecast

Advertisements
Track Severe Weather on mobile